createdAt,value
2019-03-10T00:00:41.455Z,10.01
2019-03-10T00:03:08.927Z,9.82
2019-03-10T00:05:35.881Z,9.93
2019-03-10T00:08:02.667Z,9.53
2019-03-10T00:10:42.130Z,9.47
2019-03-10T00:13:08.851Z,9.71
2019-03-10T00:15:35.844Z,9.74
2019-03-10T00:18:02.832Z,9.81
2019-03-10T00:20:36.123Z,9.70
2019-03-10T00:23:02.734Z,9.64
2019-03-10T00:25:30.954Z,9.71
2019-03-10T00:27:57.600Z,9.68
2019-03-10T00:30:24.309Z,9.87
2019-03-10T00:32:51.779Z,9.65
2019-03-10T00:35:18.410Z,9.74
2019-03-10T00:37:45.039Z,9.45
2019-03-10T00:40:12.023Z,9.30
2019-03-10T00:42:42.423Z,9.47
2019-03-10T00:45:09.026Z,9.34
2019-03-10T00:47:35.983Z,9.21
2019-03-10T00:50:03.021Z,9.42
2019-03-10T00:52:31.321Z,9.21
2019-03-10T00:54:58.031Z,9.22
2019-03-10T00:57:25.362Z,9.57
2019-03-10T00:59:52.031Z,9.60
2019-03-10T01:02:18.778Z,9.33
2019-03-10T01:04:45.919Z,9.43
2019-03-10T01:07:13.204Z,9.56
2019-03-10T01:09:41.439Z,9.68
2019-03-10T01:20:30.641Z,9.58
2019-03-10T01:22:57.522Z,9.62
2019-03-10T01:25:24.473Z,9.55
2019-03-10T01:27:51.111Z,9.40
2019-03-10T01:30:18.028Z,9.50
2019-03-10T01:32:44.875Z,9.73
2019-03-10T01:35:11.771Z,9.75
2019-03-10T01:37:38.476Z,9.60
2019-03-10T01:40:05.456Z,9.50
2019-03-10T01:42:32.450Z,9.57
2019-03-10T01:45:00.842Z,9.42
2019-03-10T01:47:27.479Z,9.37
2019-03-10T01:49:54.091Z,9.36
2019-03-10T01:52:20.896Z,9.15
2019-03-10T01:54:47.821Z,9.11
2019-03-10T01:57:14.851Z,9.17
2019-03-10T01:59:41.788Z,9.30
2019-03-10T02:02:08.671Z,9.19
2019-03-10T02:04:35.287Z,8.84
2019-03-10T02:07:02.483Z,9.01
2019-03-10T02:09:29.383Z,9.29
2019-03-10T02:11:55.970Z,9.34
2019-03-10T02:14:22.782Z,9.43
2019-03-10T02:16:49.443Z,9.39
2019-03-10T02:19:16.012Z,9.43
2019-03-10T02:21:43.165Z,9.48
2019-03-10T02:24:10.109Z,9.22
2019-03-10T02:26:36.708Z,9.10
2019-03-10T02:29:03.705Z,9.14
2019-03-10T02:31:31.245Z,9.14
2019-03-10T02:33:57.837Z,9.19
2019-03-10T02:36:26.087Z,9.22
2019-03-10T02:38:52.751Z,9.38
2019-03-10T02:41:22.238Z,9.38
2019-03-10T02:43:49.071Z,9.22
2019-03-10T02:46:15.947Z,9.28
2019-03-10T02:48:42.827Z,9.41
2019-03-10T02:51:09.613Z,9.31
2019-03-10T02:53:36.399Z,9.26
2019-03-10T02:56:03.359Z,9.16
2019-03-10T02:58:30.350Z,9.28
2019-03-10T03:00:57.152Z,9.59
2019-03-10T03:03:23.768Z,9.39
2019-03-10T03:05:50.778Z,9.20
2019-03-10T03:08:17.782Z,9.42
2019-03-10T03:10:44.449Z,9.34
2019-03-10T03:13:11.052Z,9.16
2019-03-10T03:15:37.763Z,8.83
2019-03-10T03:18:04.482Z,8.87
2019-03-10T03:20:31.402Z,8.90
2019-03-10T03:22:58.326Z,8.91
2019-03-10T03:25:24.947Z,9.04
2019-03-10T03:27:51.906Z,9.13
2019-03-10T03:30:18.593Z,8.97
2019-03-10T03:32:45.301Z,9.02
2019-03-10T03:35:12.160Z,8.92
2019-03-10T03:37:38.921Z,8.79
2019-03-10T03:40:05.936Z,8.78
2019-03-10T03:42:33.325Z,8.56
2019-03-10T03:45:00.933Z,8.52
2019-03-10T03:47:27.697Z,8.57
2019-03-10T03:49:54.353Z,8.50
2019-03-10T03:52:21.636Z,8.55
2019-03-10T03:54:48.256Z,8.58
2019-03-10T03:57:15.154Z,8.68
2019-03-10T03:59:42.001Z,8.49
2019-03-10T04:02:11.242Z,8.59
2019-03-10T04:04:37.883Z,8.62
2019-03-10T04:07:04.876Z,8.55
2019-03-10T04:09:31.861Z,8.57
2019-03-10T04:12:00.694Z,8.51
2019-03-10T04:14:27.773Z,8.46
2019-03-10T04:16:54.630Z,8.62
2019-03-10T04:19:21.334Z,8.82
2019-03-10T04:21:48.046Z,8.90
2019-03-10T04:24:14.923Z,9.04
2019-03-10T04:26:41.724Z,8.86
2019-03-10T04:29:08.400Z,8.59
2019-03-10T04:34:31.857Z,8.50
2019-03-10T04:36:58.681Z,8.43
2019-03-10T04:39:26.687Z,8.45
2019-03-10T04:41:53.454Z,8.49
2019-03-10T04:44:21.415Z,8.51
2019-03-10T04:46:49.155Z,8.35
2019-03-10T04:49:18.406Z,8.56
2019-03-10T04:51:45.008Z,8.63
2019-03-10T04:54:11.657Z,8.65
2019-03-10T04:56:38.932Z,8.61
2019-03-10T04:59:06.525Z,8.49
2019-03-10T05:01:36.835Z,8.49
2019-03-10T05:04:04.247Z,8.51
2019-03-10T05:06:30.830Z,8.47
2019-03-10T05:09:01.289Z,8.26
2019-03-10T05:11:38.917Z,7.97
2019-03-10T05:14:05.727Z,8.16
2019-03-10T05:16:35.133Z,8.10
2019-03-10T05:21:34.786Z,8.05
2019-03-10T05:24:02.402Z,8.08
2019-03-10T05:26:29.025Z,7.98
2019-03-10T05:31:57.411Z,8.05
2019-03-10T05:34:25.018Z,8.12
2019-03-10T05:36:53.945Z,7.89
2019-03-10T05:39:21.844Z,7.93
2019-03-10T05:41:49.636Z,7.87
2019-03-10T05:44:17.647Z,7.93
2019-03-10T05:46:44.876Z,8.03
2019-03-10T05:49:13.623Z,8.11
2019-03-10T05:51:44.722Z,8.26
2019-03-10T05:54:12.459Z,8.18
2019-03-10T05:56:40.146Z,8.09
2019-03-10T05:59:14.985Z,7.92
2019-03-10T06:01:36.817Z,8.09
2019-03-10T06:04:03.490Z,8.25
2019-03-10T06:06:30.113Z,8.52
2019-03-10T06:08:56.948Z,8.49
2019-03-10T06:11:23.595Z,8.55
2019-03-10T06:13:50.246Z,8.86
2019-03-10T06:16:16.861Z,9.04
2019-03-10T06:18:43.751Z,9.31
2019-03-10T06:21:10.345Z,9.54
2019-03-10T06:23:37.839Z,9.71
2019-03-10T06:26:06.154Z,9.80
2019-03-10T06:28:32.973Z,9.83
2019-03-10T06:31:00.793Z,9.89
2019-03-10T06:33:46.994Z,10.02
2019-03-10T06:36:13.858Z,10.01
2019-03-10T06:38:40.998Z,10.10
2019-03-10T06:41:07.699Z,10.32
2019-03-10T06:43:37.342Z,10.30
2019-03-10T06:46:06.420Z,10.40
2019-03-10T06:51:07.036Z,10.76
2019-03-10T06:53:36.338Z,10.85
2019-03-10T06:56:06.236Z,10.93
2019-03-10T06:58:34.077Z,10.94
2019-03-10T07:01:01.959Z,11.15
2019-03-10T07:03:31.451Z,11.27
2019-03-10T07:06:03.021Z,11.38
2019-03-10T07:08:29.633Z,11.48
2019-03-10T07:10:58.511Z,11.64
2019-03-10T07:13:24.868Z,11.86
2019-03-10T07:15:51.699Z,12.24
2019-03-10T07:18:19.003Z,12.50
2019-03-10T07:20:45.746Z,12.71
2019-03-10T07:23:15.011Z,12.80
2019-03-10T07:25:41.818Z,12.63
2019-03-10T07:30:57.622Z,13.01
2019-03-10T07:33:32.808Z,13.04
2019-03-10T07:36:02.473Z,13.23
2019-03-10T07:38:29.109Z,13.55
2019-03-10T07:40:55.933Z,13.76
2019-03-10T07:43:22.520Z,14.02
2019-03-10T07:45:49.828Z,14.23
2019-03-10T07:48:19.211Z,14.23
2019-03-10T07:50:48.305Z,14.52
2019-03-10T07:53:19.505Z,14.73
2019-03-10T07:58:15.608Z,15.28
2019-03-10T08:00:42.235Z,15.28
2019-03-10T08:03:09.153Z,15.47
2019-03-10T08:05:35.760Z,15.74
2019-03-10T08:08:03.641Z,16.02
2019-03-10T08:10:30.303Z,16.10
2019-03-10T08:12:57.519Z,16.31
2019-03-10T08:15:24.439Z,16.55
2019-03-10T08:17:51.298Z,16.53
2019-03-10T08:20:19.151Z,16.62
2019-03-10T08:22:46.550Z,16.64
2019-03-10T08:25:13.512Z,16.51
2019-03-10T08:27:40.316Z,16.51
2019-03-10T08:30:11.576Z,16.58
2019-03-10T08:32:38.210Z,16.53
2019-03-10T08:35:05.100Z,16.57
2019-03-10T08:37:31.955Z,16.71
2019-03-10T08:39:58.761Z,16.94
2019-03-10T08:42:25.771Z,17.26
2019-03-10T08:44:52.503Z,17.64
2019-03-10T08:47:20.323Z,17.70
2019-03-10T08:49:50.544Z,17.88
2019-03-10T08:52:19.401Z,18.09
2019-03-10T08:54:47.102Z,18.35
2019-03-10T08:59:43.185Z,18.58
2019-03-10T09:02:10.228Z,18.63
2019-03-10T09:04:37.060Z,18.73
2019-03-10T09:07:04.320Z,19.04
2019-03-10T09:09:31.023Z,19.03
2019-03-10T09:11:58.286Z,19.32
2019-03-10T09:14:25.126Z,19.50
2019-03-10T09:16:52.296Z,19.53
2019-03-10T09:19:20.598Z,19.95
2019-03-10T09:21:48.729Z,19.86
2019-03-10T09:24:15.366Z,19.98
2019-03-10T09:26:42.405Z,20.27
2019-03-10T09:29:09.579Z,20.59
2019-03-10T09:31:36.438Z,20.80
2019-03-10T09:34:03.426Z,21.10
2019-03-10T09:36:30.851Z,21.22
2019-03-10T09:38:57.782Z,21.35
2019-03-10T09:41:24.754Z,21.52
2019-03-10T09:43:51.768Z,21.55
2019-03-10T09:46:18.555Z,21.62
2019-03-10T09:48:45.186Z,21.59
2019-03-10T09:51:11.843Z,21.56
2019-03-10T09:53:38.932Z,21.69
2019-03-10T09:56:05.907Z,21.78
2019-03-10T09:58:32.991Z,21.24
2019-03-10T10:01:00.016Z,21.72
2019-03-10T10:03:27.063Z,21.89
2019-03-10T10:05:54.010Z,21.86
2019-03-10T10:08:21.172Z,21.74
2019-03-10T10:10:47.876Z,21.46
2019-03-10T10:13:14.520Z,21.45
2019-03-10T10:15:41.436Z,21.47
2019-03-10T10:18:08.295Z,21.67
2019-03-10T10:20:35.282Z,21.80
2019-03-10T10:23:02.471Z,22.05
2019-03-10T10:25:32.701Z,21.58
2019-03-10T10:27:59.335Z,21.37
2019-03-10T10:30:26.242Z,21.46
2019-03-10T10:32:55.696Z,21.54
2019-03-10T10:35:22.834Z,22.08
2019-03-10T10:37:53.283Z,22.56
2019-03-10T10:40:23.388Z,22.89
2019-03-10T10:42:51.622Z,23.14
2019-03-10T10:45:20.364Z,23.29
2019-03-10T10:47:47.015Z,23.64
2019-03-10T10:50:14.911Z,23.78
2019-03-10T10:52:41.825Z,23.51
2019-03-10T10:55:12.205Z,23.52
2019-03-10T10:57:41.868Z,23.54
2019-03-10T11:00:08.715Z,23.64
2019-03-10T11:02:35.901Z,23.80
2019-03-10T11:05:06.075Z,23.73
2019-03-10T11:07:33.000Z,23.53
2019-03-10T11:09:59.953Z,23.89
2019-03-10T11:14:58.781Z,24.01
2019-03-10T11:17:25.980Z,24.45
2019-03-10T11:19:52.916Z,24.73
2019-03-10T11:22:19.539Z,24.74
2019-03-10T11:24:46.508Z,24.86
2019-03-10T11:27:13.600Z,24.98
2019-03-10T11:29:40.312Z,25.12
2019-03-10T11:32:10.493Z,25.27
2019-03-10T11:34:37.461Z,24.93
2019-03-10T11:37:04.407Z,25.18
2019-03-10T11:39:31.349Z,25.04
2019-03-10T11:41:58.461Z,25.11
2019-03-10T11:44:25.349Z,25.24
2019-03-10T11:46:52.873Z,25.51
2019-03-10T11:49:19.805Z,25.53
2019-03-10T11:51:46.673Z,25.63
2019-03-10T11:54:13.566Z,25.34
2019-03-10T11:56:42.139Z,25.37
2019-03-10T11:59:08.939Z,25.52
2019-03-10T12:01:35.796Z,25.54
2019-03-10T12:04:02.658Z,25.52
2019-03-10T12:06:29.564Z,24.57
2019-03-10T12:08:56.705Z,24.82
2019-03-10T12:11:23.626Z,25.07
2019-03-10T12:13:52.253Z,24.91
2019-03-10T12:16:19.146Z,24.67
2019-03-10T12:18:46.118Z,24.33
2019-03-10T12:21:13.071Z,23.89
2019-03-10T12:23:39.710Z,23.22
2019-03-10T12:26:09.024Z,23.49
2019-03-10T12:28:35.966Z,23.96
2019-03-10T12:31:03.129Z,23.93
2019-03-10T12:33:30.062Z,24.45
2019-03-10T12:35:59.141Z,24.98
2019-03-10T12:38:26.026Z,24.66
2019-03-10T12:40:54.303Z,24.49
2019-03-10T12:43:26.457Z,24.81
2019-03-10T12:45:54.621Z,25.35
2019-03-10T12:48:26.062Z,25.83
2019-03-10T12:50:55.423Z,26.19
2019-03-10T12:53:23.464Z,26.38
2019-03-10T12:55:50.485Z,26.26
2019-03-10T12:58:19.999Z,26.27
2019-03-10T13:00:47.364Z,26.10
2019-03-10T13:03:14.342Z,25.46
2019-03-10T13:05:41.584Z,25.89
2019-03-10T13:08:08.517Z,26.25
2019-03-10T13:10:35.452Z,26.25
2019-03-10T13:13:02.423Z,26.32
2019-03-10T13:15:29.747Z,25.95
2019-03-10T13:17:56.688Z,25.75
2019-03-10T13:20:28.118Z,25.37
2019-03-10T13:22:54.326Z,25.30
2019-03-10T13:25:21.277Z,24.52
2019-03-10T13:27:48.156Z,24.83
2019-03-10T13:30:15.119Z,24.94
2019-03-10T13:32:44.203Z,25.10
2019-03-10T13:35:10.723Z,25.10
2019-03-10T13:37:37.878Z,25.27
2019-03-10T13:40:04.823Z,25.26
2019-03-10T13:42:32.177Z,25.33
2019-03-10T13:44:59.148Z,25.11
2019-03-10T13:47:26.028Z,24.65
2019-03-10T13:49:55.058Z,24.73
2019-03-10T13:52:22.082Z,24.95
2019-03-10T13:54:48.987Z,24.38
2019-03-10T13:57:15.893Z,25.07
2019-03-10T13:59:42.786Z,25.40
2019-03-10T14:02:10.009Z,25.17
2019-03-10T14:04:36.928Z,24.52
2019-03-10T14:07:03.829Z,24.23
2019-03-10T14:09:30.971Z,23.62
2019-03-10T14:11:57.872Z,23.13
2019-03-10T14:14:25.507Z,23.41
2019-03-10T14:16:52.536Z,23.57
2019-03-10T14:19:19.525Z,23.63
2019-03-10T14:21:46.536Z,22.93
2019-03-10T14:24:13.456Z,23.23
2019-03-10T14:26:40.358Z,23.63
2019-03-10T14:29:06.990Z,24.13
2019-03-10T14:31:33.772Z,24.31
2019-03-10T14:34:00.687Z,24.33
2019-03-10T14:36:27.328Z,24.31
2019-03-10T14:38:55.923Z,23.57
2019-03-10T14:41:23.030Z,23.71
2019-03-10T14:43:50.181Z,23.83
2019-03-10T14:46:16.961Z,24.09
2019-03-10T14:48:43.588Z,24.31
2019-03-10T14:51:10.483Z,23.58
2019-03-10T14:53:37.871Z,23.37
2019-03-10T14:56:04.465Z,23.85
2019-03-10T14:58:31.601Z,23.93
2019-03-10T15:00:58.504Z,23.53
2019-03-10T15:03:25.991Z,23.42
2019-03-10T15:05:52.913Z,23.78
2019-03-10T15:08:19.900Z,23.30
2019-03-10T15:10:46.811Z,23.48
2019-03-10T15:13:13.801Z,23.92
2019-03-10T15:15:40.749Z,23.78
2019-03-10T15:18:07.786Z,23.07
2019-03-10T15:20:34.662Z,22.81
2019-03-10T15:23:01.846Z,23.10
2019-03-10T15:25:28.839Z,23.35
2019-03-10T15:27:56.197Z,23.31
2019-03-10T15:30:23.179Z,23.26
2019-03-10T15:32:50.126Z,23.40
2019-03-10T15:35:17.297Z,23.31
2019-03-10T15:37:44.580Z,22.87
2019-03-10T15:40:11.552Z,22.54
2019-03-10T15:42:38.447Z,21.82
2019-03-10T15:45:07.147Z,21.73
2019-03-10T15:47:33.939Z,21.36
2019-03-10T15:50:00.874Z,21.29
2019-03-10T15:52:28.389Z,21.46
2019-03-10T15:54:55.095Z,22.02
2019-03-10T15:57:21.704Z,22.30
2019-03-10T15:59:48.419Z,22.07
2019-03-10T16:02:15.001Z,22.12
2019-03-10T16:04:41.874Z,21.61
2019-03-10T16:07:09.251Z,21.33
2019-03-10T16:09:37.150Z,21.05
2019-03-10T16:12:04.967Z,21.05
2019-03-10T16:14:34.103Z,20.86
2019-03-10T16:17:01.001Z,20.53
2019-03-10T16:19:29.025Z,20.69
2019-03-10T16:21:56.870Z,20.99
2019-03-10T16:24:23.710Z,20.94
2019-03-10T16:26:51.595Z,20.60
2019-03-10T16:29:23.063Z,20.52
2019-03-10T16:31:50.196Z,20.70
2019-03-10T16:34:17.183Z,20.83
2019-03-10T16:36:46.334Z,20.83
2019-03-10T16:39:16.407Z,20.62
2019-03-10T16:41:45.041Z,20.60
2019-03-10T16:44:15.286Z,20.41
2019-03-10T16:46:42.289Z,20.32
2019-03-10T16:49:13.934Z,20.24
2019-03-10T16:51:41.037Z,20.13
2019-03-10T16:54:11.657Z,20.20
2019-03-10T16:56:38.608Z,20.39
2019-03-10T16:59:07.868Z,20.55
2019-03-10T17:01:36.295Z,20.06
2019-03-10T17:04:03.909Z,19.88
2019-03-10T17:06:33.980Z,19.88
2019-03-10T17:09:04.754Z,19.75
2019-03-10T17:11:38.496Z,19.62
2019-03-10T17:14:05.724Z,19.33
2019-03-10T17:16:35.957Z,19.29
2019-03-10T17:19:02.537Z,19.29
2019-03-10T17:21:29.557Z,19.03
2019-03-10T17:24:00.010Z,19.20
2019-03-10T17:26:28.900Z,19.28
2019-03-10T17:29:03.049Z,19.16
2019-03-10T17:31:32.187Z,19.04
2019-03-10T17:33:59.310Z,19.08
2019-03-10T17:36:28.332Z,18.58
2019-03-10T17:38:57.695Z,18.72
2019-03-10T17:41:32.551Z,19.21
2019-03-10T17:46:43.295Z,18.99
2019-03-10T17:49:12.944Z,18.93
2019-03-10T17:51:43.278Z,18.99
2019-03-10T17:54:14.246Z,19.15
2019-03-10T17:56:40.835Z,19.22
2019-03-10T17:59:10.162Z,18.95
2019-03-10T18:01:37.040Z,19.05
2019-03-10T18:04:03.917Z,19.13
2019-03-10T18:06:30.722Z,19.06
2019-03-10T18:08:59.927Z,19.05
2019-03-10T18:11:29.175Z,19.05
2019-03-10T18:13:56.038Z,19.29
2019-03-10T18:16:22.971Z,18.77
2019-03-10T18:18:49.874Z,18.42
2019-03-10T18:21:21.393Z,18.64
2019-03-10T18:23:51.471Z,18.88
2019-03-10T18:26:20.740Z,18.61
2019-03-10T18:28:49.591Z,18.69
2019-03-10T18:34:03.159Z,18.47
2019-03-10T18:36:29.877Z,18.22
2019-03-10T18:38:56.505Z,18.57
2019-03-10T18:41:23.157Z,18.51
2019-03-10T18:46:22.109Z,18.37
2019-03-10T18:48:49.417Z,18.51
2019-03-10T18:51:16.398Z,18.54
2019-03-10T18:53:43.360Z,18.60
2019-03-10T18:56:10.462Z,18.74
2019-03-10T18:58:37.870Z,18.72
2019-03-10T19:01:04.748Z,18.58
2019-03-10T19:03:31.381Z,18.53
2019-03-10T19:05:58.226Z,18.35
2019-03-10T19:08:24.811Z,18.44
2019-03-10T19:10:53.433Z,18.24
2019-03-10T19:13:20.300Z,18.01
2019-03-10T19:15:47.003Z,17.83
2019-03-10T19:18:14.127Z,17.79
2019-03-10T19:20:41.085Z,17.76
2019-03-10T19:23:08.086Z,17.40
2019-03-10T19:25:35.039Z,17.26
2019-03-10T19:28:01.899Z,17.05
2019-03-10T19:30:28.882Z,16.89
2019-03-10T19:32:55.458Z,16.90
2019-03-10T19:35:22.280Z,16.82
2019-03-10T19:37:49.018Z,16.63
2019-03-10T19:40:16.237Z,16.30
2019-03-10T19:42:43.334Z,16.35
2019-03-10T19:45:10.236Z,16.50
2019-03-10T19:47:37.268Z,16.61
2019-03-10T19:50:04.472Z,16.42
2019-03-10T19:52:31.145Z,15.98
2019-03-10T19:54:58.121Z,15.87
2019-03-10T19:57:24.837Z,15.82
2019-03-10T19:59:51.708Z,15.70
2019-03-10T20:02:19.061Z,15.69
2019-03-10T20:04:45.722Z,15.71
2019-03-10T20:07:12.581Z,15.63
2019-03-10T20:09:39.176Z,15.73
2019-03-10T20:12:06.991Z,15.70
2019-03-10T20:14:33.742Z,15.82
2019-03-10T20:17:00.346Z,15.54
2019-03-10T20:19:27.058Z,15.29
2019-03-10T20:21:56.030Z,15.08
2019-03-10T20:24:22.700Z,15.12
2019-03-10T20:26:49.310Z,15.36
2019-03-10T20:29:16.191Z,15.35
2019-03-10T20:31:43.162Z,15.13
2019-03-10T20:34:10.085Z,15.16
2019-03-10T20:36:38.097Z,15.02
2019-03-10T20:39:04.894Z,15.07
2019-03-10T20:41:31.595Z,14.75
2019-03-10T20:43:58.331Z,14.86
2019-03-10T20:46:25.259Z,14.90
2019-03-10T20:48:51.981Z,14.78
2019-03-10T20:51:19.198Z,14.88
2019-03-10T20:53:46.129Z,14.91
2019-03-10T20:56:13.285Z,14.81
2019-03-10T20:58:39.984Z,14.71
2019-03-10T21:01:06.702Z,14.43
2019-03-10T21:03:33.338Z,14.56
2019-03-10T21:06:00.000Z,14.51
2019-03-10T21:08:26.910Z,14.24
2019-03-10T21:10:54.125Z,14.12
2019-03-10T21:13:21.086Z,14.14
2019-03-10T21:15:48.002Z,14.19
2019-03-10T21:18:14.655Z,14.29
2019-03-10T21:20:41.275Z,14.38
2019-03-10T21:23:08.101Z,14.23
2019-03-10T21:25:34.719Z,14.15
2019-03-10T21:28:01.345Z,14.05
2019-03-10T21:30:28.587Z,14.11
2019-03-10T21:32:55.240Z,13.99
2019-03-10T21:35:22.161Z,14.05
2019-03-10T21:37:48.783Z,14.03
2019-03-10T21:40:15.457Z,14.00
2019-03-10T21:42:42.321Z,13.84
2019-03-10T21:45:10.173Z,13.64
2019-03-10T21:47:38.979Z,13.72
2019-03-10T21:50:05.419Z,13.63
2019-03-10T21:52:32.009Z,13.54
2019-03-10T21:54:58.764Z,13.50
2019-03-10T21:57:25.624Z,13.49
2019-03-10T21:59:52.462Z,13.49
2019-03-10T22:02:19.183Z,13.41
2019-03-10T22:04:46.105Z,13.27
2019-03-10T22:07:12.928Z,13.14
2019-03-10T22:09:40.991Z,13.19
2019-03-10T22:12:07.642Z,13.26
2019-03-10T22:14:35.373Z,13.17
2019-03-10T22:17:02.692Z,13.10
2019-03-10T22:19:29.290Z,13.09
2019-03-10T22:21:55.902Z,13.00
2019-03-10T22:24:22.869Z,12.95
2019-03-10T22:26:49.469Z,13.03
2019-03-10T22:29:16.351Z,13.15
2019-03-10T22:31:46.004Z,13.07
2019-03-10T22:34:12.642Z,12.96
2019-03-10T22:36:43.514Z,13.04
2019-03-10T22:39:11.480Z,13.11
2019-03-10T22:41:40.442Z,13.12
2019-03-10T22:44:09.013Z,13.30
2019-03-10T22:46:37.938Z,13.47
2019-03-10T22:49:07.719Z,13.67
2019-03-10T22:51:36.658Z,14.02
2019-03-10T22:54:05.743Z,14.37
2019-03-10T22:56:33.863Z,14.45
2019-03-10T22:59:01.281Z,14.48
2019-03-10T23:01:27.887Z,14.38
2019-03-10T23:03:54.569Z,14.82
2019-03-10T23:06:21.877Z,15.09
2019-03-10T23:08:48.587Z,15.21
2019-03-10T23:11:15.905Z,15.37
2019-03-10T23:13:42.744Z,15.65
2019-03-10T23:16:09.648Z,15.82
2019-03-10T23:18:36.372Z,16.05
2019-03-10T23:21:03.164Z,16.18
2019-03-10T23:23:30.291Z,16.27
2019-03-10T23:25:56.912Z,16.43
2019-03-10T23:28:24.155Z,16.56
2019-03-10T23:30:50.783Z,16.53
2019-03-10T23:33:17.944Z,16.21
2019-03-10T23:35:44.843Z,16.12
2019-03-10T23:38:12.350Z,16.46
2019-03-10T23:40:39.027Z,16.49
2019-03-10T23:43:05.984Z,16.59
2019-03-10T23:45:32.597Z,16.55
2019-03-10T23:47:59.184Z,16.44
2019-03-10T23:50:25.851Z,16.46
2019-03-10T23:52:52.535Z,16.45
2019-03-10T23:55:19.436Z,16.50
2019-03-10T23:57:46.526Z,16.49
